Aérodrome :
LOGIN :

S'inscrire | Disclaimer

   EN    FR    IT 

 










Légende :    VFR   VFR Marginal   IFR   IFR Intensif   IFR Très Intensif
Visi : 
Plafond : 
>= 8 km
>= 3000ft
5 à 8 km
1000 à 3000 ft
1500m à 5 km
500 à 1000 ft
800 à 1500m
200 à 500 ft
< 800m
< 200 ft
Symboles :   Orages  Brouillard  Fortes neiges  Fortes précipitations  Vent > 20 kt
SIGMETs :   Divers  Orages  Givrage  Turbulence  Onde Orograph.  Cendres Volcan.






- Altitude de l'aérodrome : 138 ft
- Code IATA : BIO


LEBB - Bilbao

DERNIER METAR :
  • 241000Z 34003KT 290V030 9999 FEW025 SCT030 20/14 Q1012 NOSIG

METARs EXPIRÉS :
  • 240930Z 28004KT 220V320 9999 FEW025 SCT038 20/14 Q1012 NOSIG
  • 240900Z 23003KT 190V280 9999 FEW025 SCT038 19/15 Q1012 NOSIG
  • 240830Z 00000KT 9999 FEW025 SCT038 BKN070 19/15 Q1012 NOSIG
  • 240800Z 00000KT 9999 FEW025 BKN040 18/16 Q1012 NOSIG
  • 240730Z VRB02KT 9999 FEW020 BKN036 18/16 Q1012 NOSIG

TAF TAF LEBB
Valide du 24 à 06h jusqu'au 25 à 06h UTC


240500Z 2406/2506 29009KT 9999 SCT020 BKN030 TX22/2413Z TN10/2506Z
TEMPO 2406/2409 3000 RA BKN014
TEMPO 2412/2506 29015G30KT
TEMPO 2415/2506 30020G40KT
TEMPO 2415/2506 3000 SHRA RA BKN014 SCT030TCU



MET'MAP, la Météo Aéronautique d'un coup d'oeil ! - Copyright ORBIFLY Décembre 2007 - Disclaimer

ORBIFLY MET'MAP TEAM :

Programmation & Développement : Alexandra Zaïnal
Sur une idée originale de : Baudouin d'Aumeries
Assistance à la programmation : Marc-Olivier Méhu
Soutien technique & logistique : Manuel Goepfert

Contact : metmap@orbifly.com




SOURCES & CREDITS :

   NOAA